createdAt,value
2023-01-29T00:03:16.059Z,-1.21
2023-01-29T00:08:17.606Z,-1.20
2023-01-29T00:13:19.077Z,-1.17
2023-01-29T00:18:20.753Z,-1.13
2023-01-29T00:23:23.008Z,-1.09
2023-01-29T00:28:24.513Z,-1.06
2023-01-29T00:33:28.558Z,-1.02
2023-01-29T00:38:30.119Z,-0.97
2023-01-29T00:43:50.223Z,-0.92
2023-01-29T00:48:51.866Z,-0.91
2023-01-29T00:53:57.667Z,-0.90
2023-01-29T00:58:59.858Z,-0.89
2023-01-29T01:04:01.434Z,-0.85
2023-01-29T01:09:22.663Z,-0.85
2023-01-29T01:14:24.134Z,-0.86
2023-01-29T01:19:25.708Z,-0.86
2023-01-29T01:24:27.416Z,-0.83
2023-01-29T01:29:29.064Z,-0.83
2023-01-29T01:34:30.748Z,-0.83
2023-01-29T01:39:32.217Z,-0.81
2023-01-29T01:44:58.804Z,-0.77
2023-01-29T01:50:15.567Z,-0.76
2023-01-29T01:55:20.951Z,-0.80
2023-01-29T02:00:25.599Z,-0.81
2023-01-29T02:05:47.341Z,-0.78
2023-01-29T02:10:49.459Z,-0.77
2023-01-29T02:15:51.102Z,-0.77
2023-01-29T02:21:13.254Z,-0.78
2023-01-29T02:26:45.446Z,-0.79
2023-01-29T02:31:56.562Z,-0.77
2023-01-29T02:37:04.466Z,-0.75
2023-01-29T02:42:26.824Z,-0.74
2023-01-29T02:47:36.491Z,-0.73
2023-01-29T02:52:50.719Z,-0.73
2023-01-29T02:57:58.883Z,-0.77
2023-01-29T03:03:29.645Z,-0.82
2023-01-29T03:08:42.801Z,-0.84
2023-01-29T03:13:59.523Z,-0.85
2023-01-29T03:19:15.836Z,-0.85
2023-01-29T03:24:40.754Z,-0.84
2023-01-29T03:30:02.721Z,-0.84
2023-01-29T03:35:07.939Z,-0.83
2023-01-29T03:40:10.644Z,-0.84
2023-01-29T03:45:24.416Z,-0.88
2023-01-29T03:50:41.862Z,-0.91
2023-01-29T03:55:55.620Z,-0.91
2023-01-29T04:01:02.416Z,-0.89
2023-01-29T04:06:12.853Z,-0.86
2023-01-29T04:11:19.386Z,-0.87
2023-01-29T04:16:26.610Z,-0.89
2023-01-29T04:21:31.304Z,-0.89
2023-01-29T04:26:51.250Z,-0.89
2023-01-29T04:31:52.803Z,-0.90
2023-01-29T04:37:09.551Z,-0.91
2023-01-29T04:42:20.843Z,-0.90
2023-01-29T04:47:41.343Z,-0.90
2023-01-29T04:53:21.237Z,-0.90
2023-01-29T04:58:32.731Z,-0.88
2023-01-29T05:03:37.172Z,-0.88
2023-01-29T05:08:40.695Z,-0.87
2023-01-29T05:13:44.283Z,-0.86
2023-01-29T05:18:46.407Z,-0.85
2023-01-29T05:24:10.327Z,-0.84
2023-01-29T05:29:11.865Z,-0.82
2023-01-29T05:34:13.849Z,-0.80
2023-01-29T05:39:16.040Z,-0.77
2023-01-29T05:44:17.533Z,-0.78
2023-01-29T05:49:20.101Z,-0.80
2023-01-29T05:54:21.583Z,-0.80
2023-01-29T05:59:23.145Z,-0.79
2023-01-29T06:04:24.614Z,-0.77
2023-01-29T06:09:26.083Z,-0.74
2023-01-29T06:14:27.868Z,-0.71
2023-01-29T06:19:29.337Z,-0.69
2023-01-29T06:24:33.041Z,-0.68
2023-01-29T06:29:34.628Z,-0.67
2023-01-29T06:34:36.303Z,-0.67
2023-01-29T06:39:37.773Z,-0.64
2023-01-29T06:44:39.344Z,-0.62
2023-01-29T06:49:40.817Z,-0.62
2023-01-29T06:54:42.518Z,-0.60
2023-01-29T06:59:43.969Z,-0.54
2023-01-29T07:04:45.368Z,-0.49
2023-01-29T07:09:46.803Z,-0.42
2023-01-29T07:14:48.268Z,-0.36
2023-01-29T07:19:49.841Z,-0.32
2023-01-29T07:24:51.425Z,-0.30
2023-01-29T07:29:53.092Z,-0.30
2023-01-29T07:34:54.482Z,-0.27
2023-01-29T07:39:55.931Z,-0.20
2023-01-29T07:44:57.604Z,-0.14
2023-01-29T07:49:59.075Z,-0.05
2023-01-29T07:55:00.542Z,0.08
2023-01-29T08:00:02.114Z,0.23
2023-01-29T08:05:04.512Z,0.35
2023-01-29T08:10:06.395Z,0.46
2023-01-29T08:15:08.850Z,0.61
2023-01-29T08:20:11.342Z,0.76
2023-01-29T08:25:14.173Z,0.88
2023-01-29T08:30:16.921Z,0.98
2023-01-29T08:35:19.902Z,1.08
2023-01-29T08:40:22.069Z,1.15
2023-01-29T08:45:23.540Z,1.17
2023-01-29T08:50:25.215Z,1.17
2023-01-29T08:55:28.014Z,1.18
2023-01-29T09:00:29.588Z,1.18
2023-01-29T09:05:31.289Z,1.20
2023-01-29T09:10:33.467Z,1.36
2023-01-29T09:15:34.905Z,1.60
2023-01-29T09:20:38.371Z,1.65
2023-01-29T09:25:42.511Z,1.62
2023-01-29T09:30:44.752Z,1.49
2023-01-29T09:35:46.640Z,1.43
2023-01-29T09:40:57.833Z,1.49
2023-01-29T09:46:05.294Z,1.51
2023-01-29T09:51:19.004Z,1.48
2023-01-29T09:56:23.100Z,1.45
2023-01-29T10:01:34.130Z,1.56
2023-01-29T10:07:01.713Z,1.80
2023-01-29T10:12:28.373Z,2.01
2023-01-29T10:17:32.609Z,2.10
2023-01-29T10:22:37.151Z,2.16
2023-01-29T10:27:41.551Z,2.17
2023-01-29T10:32:44.905Z,2.08
2023-01-29T10:37:46.974Z,1.99
2023-01-29T10:42:51.431Z,1.94
2023-01-29T10:48:08.571Z,1.97
2023-01-29T10:53:19.561Z,2.05
2023-01-29T10:58:29.843Z,2.05
2023-01-29T11:03:32.982Z,1.98
2023-01-29T11:08:42.710Z,1.99
2023-01-29T11:14:04.761Z,1.97
2023-01-29T11:19:06.436Z,1.84
2023-01-29T11:24:14.871Z,1.79
2023-01-29T11:29:41.176Z,1.77
2023-01-29T11:35:05.837Z,1.75
2023-01-29T11:40:36.908Z,1.74
2023-01-29T11:45:39.805Z,1.79
2023-01-29T11:50:41.863Z,1.88
2023-01-29T11:55:50.900Z,1.96
2023-01-29T12:00:55.035Z,2.06
2023-01-29T12:06:05.379Z,2.08
2023-01-29T12:11:26.787Z,2.04
2023-01-29T12:16:51.402Z,1.96
2023-01-29T12:22:03.744Z,1.78
2023-01-29T12:27:24.548Z,1.67
2023-01-29T12:32:35.337Z,1.74
2023-01-29T12:37:40.287Z,1.79
2023-01-29T12:42:47.798Z,1.81
2023-01-29T12:47:58.398Z,1.79
2023-01-29T12:53:09.995Z,1.77
2023-01-29T12:58:11.462Z,1.78
2023-01-29T13:03:18.917Z,1.78
2023-01-29T13:08:22.821Z,1.74
2023-01-29T13:13:40.449Z,1.69
2023-01-29T13:19:00.872Z,1.62
2023-01-29T13:24:09.608Z,1.55
2023-01-29T13:29:20.908Z,1.53
2023-01-29T13:34:24.118Z,1.52
2023-01-29T13:39:33.267Z,1.51
2023-01-29T13:44:39.313Z,1.48
2023-01-29T13:49:47.265Z,1.44
2023-01-29T13:54:58.259Z,1.40
2023-01-29T13:59:59.838Z,1.36
2023-01-29T14:05:29.287Z,1.34
2023-01-29T14:10:33.702Z,1.32
2023-01-29T14:15:36.709Z,1.30
2023-01-29T14:20:45.639Z,1.27
2023-01-29T14:25:48.146Z,1.24
2023-01-29T14:30:50.611Z,1.22
2023-01-29T14:35:56.214Z,1.19
2023-01-29T14:41:32.178Z,1.16
2023-01-29T14:46:33.773Z,1.15
2023-01-29T14:51:39.939Z,1.12
2023-01-29T14:56:49.190Z,1.10
2023-01-29T15:01:55.184Z,1.08
2023-01-29T15:07:05.648Z,1.06
2023-01-29T15:12:17.362Z,1.04
2023-01-29T15:17:26.063Z,1.04
2023-01-29T15:22:29.847Z,1.03
2023-01-29T15:27:31.664Z,1.04
2023-01-29T15:32:36.875Z,1.04
2023-01-29T15:37:39.459Z,1.02
2023-01-29T15:42:46.339Z,1.02
2023-01-29T15:47:48.552Z,1.02
2023-01-29T15:52:54.104Z,1.03
2023-01-29T15:57:57.113Z,1.04
2023-01-29T16:03:01.923Z,1.04
2023-01-29T16:08:04.455Z,1.04
2023-01-29T16:13:29.589Z,1.04
2023-01-29T16:18:39.484Z,1.04
2023-01-29T16:23:49.722Z,1.05
2023-01-29T16:28:52.054Z,1.06
2023-01-29T16:33:56.218Z,1.06
2023-01-29T16:39:05.813Z,1.09
2023-01-29T16:44:17.005Z,1.10
2023-01-29T16:49:30.564Z,1.10
2023-01-29T16:54:32.032Z,1.09
2023-01-29T16:59:37.911Z,1.08
2023-01-29T17:04:41.782Z,1.07
2023-01-29T17:09:43.710Z,1.04
2023-01-29T17:15:25.526Z,1.04
2023-01-29T17:20:27.936Z,1.04
2023-01-29T17:25:29.594Z,1.03
2023-01-29T17:30:36.412Z,1.03
2023-01-29T17:35:38.064Z,1.04
2023-01-29T17:40:55.199Z,1.04
2023-01-29T17:45:56.860Z,1.01
2023-01-29T17:51:02.463Z,0.97
2023-01-29T17:56:04.813Z,0.94
2023-01-29T18:01:06.303Z,0.93
2023-01-29T18:06:09.130Z,0.91
2023-01-29T18:11:12.218Z,0.91
2023-01-29T18:16:13.972Z,0.90
2023-01-29T18:21:15.667Z,0.90
2023-01-29T18:26:17.373Z,0.90
2023-01-29T18:31:18.950Z,0.90
2023-01-29T18:36:20.601Z,0.89
2023-01-29T18:41:22.164Z,0.87
2023-01-29T18:46:24.407Z,0.86
2023-01-29T18:51:25.922Z,0.87
2023-01-29T18:56:27.410Z,0.86
2023-01-29T19:01:29.889Z,0.86
2023-01-29T19:06:37.029Z,0.86
2023-01-29T19:11:38.765Z,0.87
2023-01-29T19:16:40.751Z,0.89
2023-01-29T19:21:42.833Z,0.90
2023-01-29T19:26:44.344Z,0.91
2023-01-29T19:31:46.961Z,0.93
2023-01-29T19:36:48.478Z,0.95
2023-01-29T19:41:49.943Z,0.96
2023-01-29T19:46:51.523Z,0.95
2023-01-29T19:51:55.549Z,0.93
2023-01-29T19:56:57.119Z,0.91
2023-01-29T20:01:58.632Z,0.91
2023-01-29T20:07:00.164Z,0.91
2023-01-29T20:12:01.840Z,0.91
2023-01-29T20:17:03.305Z,0.88
2023-01-29T20:22:05.498Z,0.87
2023-01-29T20:27:10.344Z,0.87
2023-01-29T20:32:13.357Z,0.85
2023-01-29T20:37:14.819Z,0.84
2023-01-29T20:42:16.400Z,0.84
2023-01-29T20:47:18.175Z,0.85
2023-01-29T20:52:19.641Z,0.87
2023-01-29T20:57:21.312Z,0.88
2023-01-29T21:02:22.977Z,0.88
2023-01-29T21:07:24.563Z,0.89
2023-01-29T21:12:26.132Z,0.90
2023-01-29T21:17:28.225Z,0.93
2023-01-29T21:22:31.018Z,0.96
2023-01-29T21:27:32.488Z,1.00
2023-01-29T21:32:34.266Z,1.03
2023-01-29T21:37:37.387Z,1.06
2023-01-29T21:42:57.480Z,1.10
2023-01-29T21:47:58.976Z,1.11
2023-01-29T21:53:01.254Z,1.13
2023-01-29T21:58:03.839Z,1.14
2023-01-29T22:03:06.389Z,1.15
2023-01-29T22:08:07.913Z,1.16
2023-01-29T22:13:09.579Z,1.17
2023-01-29T22:18:11.158Z,1.19
2023-01-29T22:23:13.339Z,1.18
2023-01-29T22:28:18.296Z,1.19
2023-01-29T22:33:20.171Z,1.19
2023-01-29T22:38:23.393Z,1.19
2023-01-29T22:43:25.468Z,1.19
2023-01-29T22:48:28.169Z,1.20
2023-01-29T22:53:29.643Z,1.20
2023-01-29T22:58:31.207Z,1.20
2023-01-29T23:03:33.208Z,1.20
2023-01-29T23:08:34.764Z,1.20
2023-01-29T23:13:36.241Z,1.19
2023-01-29T23:18:37.812Z,1.20
2023-01-29T23:23:39.904Z,1.19
2023-01-29T23:28:41.669Z,1.17
2023-01-29T23:33:43.550Z,1.17
2023-01-29T23:38:45.125Z,1.17
2023-01-29T23:43:46.694Z,1.16
2023-01-29T23:48:48.163Z,1.16
2023-01-29T23:53:49.633Z,1.16
2023-01-29T23:58:55.326Z,1.16
